sensor_id;sensor_type;location;lat;lon;timestamp;P1;P2;P0
36523;PMS5003;66329;46.796;9.824;2023-01-29T00:00:41;5;4;
36523;PMS5003;66329;46.796;9.824;2023-01-29T00:03:09;3;3;
36523;PMS5003;66329;46.796;9.824;2023-01-29T00:05:36;3;3;
36523;PMS5003;66329;46.796;9.824;2023-01-29T00:08:04;4;4;
36523;PMS5003;66329;46.796;9.824;2023-01-29T00:10:31;4;4;
36523;PMS5003;66329;46.796;9.824;2023-01-29T00:12:58;4;4;
36523;PMS5003;66329;46.796;9.824;2023-01-29T00:15:25;4;4;
36523;PMS5003;66329;46.796;9.824;2023-01-29T00:17:52;3;3;
36523;PMS5003;66329;46.796;9.824;2023-01-29T00:20:21;3;3;
36523;PMS5003;66329;46.796;9.824;2023-01-29T00:22:48;4;4;
36523;PMS5003;66329;46.796;9.824;2023-01-29T00:25:16;3;3;
36523;PMS5003;66329;46.796;9.824;2023-01-29T00:27:43;4;4;
36523;PMS5003;66329;46.796;9.824;2023-01-29T00:30:11;5;5;
36523;PMS5003;66329;46.796;9.824;2023-01-29T00:32:40;3;3;
36523;PMS5003;66329;46.796;9.824;2023-01-29T00:35:08;3;3;
36523;PMS5003;66329;46.796;9.824;2023-01-29T00:37:36;3;3;
36523;PMS5003;66329;46.796;9.824;2023-01-29T00:40:04;5;5;
36523;PMS5003;66329;46.796;9.824;2023-01-29T00:42:31;3;3;
36523;PMS5003;66329;46.796;9.824;2023-01-29T00:44:59;4;4;
36523;PMS5003;66329;46.796;9.824;2023-01-29T00:45:00;4;4;
36523;PMS5003;66329;46.796;9.824;2023-01-29T00:47:27;3;3;
36523;PMS5003;66329;46.796;9.824;2023-01-29T00:49:56;3;3;
36523;PMS5003;66329;46.796;9.824;2023-01-29T00:52:23;4;4;
36523;PMS5003;66329;46.796;9.824;2023-01-29T00:54:51;3;3;
36523;PMS5003;66329;46.796;9.824;2023-01-29T00:57:19;2;2;
36523;PMS5003;66329;46.796;9.824;2023-01-29T00:59:47;4;4;
36523;PMS5003;66329;46.796;9.824;2023-01-29T01:02:15;1;1;
36523;PMS5003;66329;46.796;9.824;2023-01-29T01:04:44;2;2;
36523;PMS5003;66329;46.796;9.824;2023-01-29T01:07:11;4;2;
36523;PMS5003;66329;46.796;9.824;2023-01-29T01:09:38;3;3;
36523;PMS5003;66329;46.796;9.824;2023-01-29T01:12:06;1;1;
36523;PMS5003;66329;46.796;9.824;2023-01-29T01:14:40;5;3;
36523;PMS5003;66329;46.796;9.824;2023-01-29T01:17:09;2;2;
36523;PMS5003;66329;46.796;9.824;2023-01-29T01:19:42;3;3;
36523;PMS5003;66329;46.796;9.824;2023-01-29T01:22:09;3;3;
36523;PMS5003;66329;46.796;9.824;2023-01-29T01:24:37;2;2;
36523;PMS5003;66329;46.796;9.824;2023-01-29T01:27:05;4;3;
36523;PMS5003;66329;46.796;9.824;2023-01-29T01:29:33;3;3;
36523;PMS5003;66329;46.796;9.824;2023-01-29T01:32:01;3;3;
36523;PMS5003;66329;46.796;9.824;2023-01-29T01:34:29;3;3;
36523;PMS5003;66329;46.796;9.824;2023-01-29T01:36:58;3;3;
36523;PMS5003;66329;46.796;9.824;2023-01-29T01:39:26;4;3;
36523;PMS5003;66329;46.796;9.824;2023-01-29T01:41:54;2;2;
36523;PMS5003;66329;46.796;9.824;2023-01-29T01:45:04;4;4;
36523;PMS5003;66329;46.796;9.824;2023-01-29T01:47:40;3;3;
36523;PMS5003;66329;46.796;9.824;2023-01-29T01:50:13;2;2;
36523;PMS5003;66329;46.796;9.824;2023-01-29T01:52:45;3;3;
36523;PMS5003;66329;46.796;9.824;2023-01-29T01:55:18;1;1;
36523;PMS5003;66329;46.796;9.824;2023-01-29T01:57:51;4;4;
36523;PMS5003;66329;46.796;9.824;2023-01-29T02:00:23;4;4;
36523;PMS5003;66329;46.796;9.824;2023-01-29T02:02:52;2;2;
36523;PMS5003;66329;46.796;9.824;2023-01-29T02:05:21;3;3;
36523;PMS5003;66329;46.796;9.824;2023-01-29T02:07:50;3;3;
36523;PMS5003;66329;46.796;9.824;2023-01-29T02:10:18;2;2;
36523;PMS5003;66329;46.796;9.824;2023-01-29T02:12:48;4;4;
36523;PMS5003;66329;46.796;9.824;2023-01-29T02:15:17;4;4;
36523;PMS5003;66329;46.796;9.824;2023-01-29T02:17:44;2;2;
36523;PMS5003;66329;46.796;9.824;2023-01-29T02:20:14;3;3;
36523;PMS5003;66329;46.796;9.824;2023-01-29T02:22:56;2;2;
36523;PMS5003;66329;46.796;9.824;2023-01-29T02:25:46;3;3;
36523;PMS5003;66329;46.796;9.824;2023-01-29T02:28:28;2;2;
36523;PMS5003;66329;46.796;9.824;2023-01-29T02:31:01;2;2;
36523;PMS5003;66329;46.796;9.824;2023-01-29T02:33:41;3;3;
36523;PMS5003;66329;46.796;9.824;2023-01-29T02:36:21;3;3;
36523;PMS5003;66329;46.796;9.824;2023-01-29T02:38:56;2;2;
36523;PMS5003;66329;46.796;9.824;2023-01-29T02:41:29;3;3;
36523;PMS5003;66329;46.796;9.824;2023-01-29T02:44:03;4;2;
36523;PMS5003;66329;46.796;9.824;2023-01-29T02:46:43;2;2;
36523;PMS5003;66329;46.796;9.824;2023-01-29T02:49:18;4;3;
36523;PMS5003;66329;46.796;9.824;2023-01-29T02:51:51;1;1;
36523;PMS5003;66329;46.796;9.824;2023-01-29T02:54:28;3;3;
36523;PMS5003;66329;46.796;9.824;2023-01-29T02:57:03;2;2;
36523;PMS5003;66329;46.796;9.824;2023-01-29T02:59:37;2;2;
36523;PMS5003;66329;46.796;9.824;2023-01-29T03:02:09;3;3;
36523;PMS5003;66329;46.796;9.824;2023-01-29T03:04:42;3;3;
36523;PMS5003;66329;46.796;9.824;2023-01-29T03:07:14;3;3;
36523;PMS5003;66329;46.796;9.824;2023-01-29T03:09:46;3;3;
36523;PMS5003;66329;46.796;9.824;2023-01-29T03:12:18;3;3;
36523;PMS5003;66329;46.796;9.824;2023-01-29T03:14:49;3;2;
36523;PMS5003;66329;46.796;9.824;2023-01-29T03:17:17;3;3;
36523;PMS5003;66329;46.796;9.824;2023-01-29T03:19:48;3;3;
36523;PMS5003;66329;46.796;9.824;2023-01-29T03:22:17;3;3;
36523;PMS5003;66329;46.796;9.824;2023-01-29T03:24:45;2;2;
36523;PMS5003;66329;46.796;9.824;2023-01-29T03:27:17;3;3;
36523;PMS5003;66329;46.796;9.824;2023-01-29T03:29:48;3;3;
36523;PMS5003;66329;46.796;9.824;2023-01-29T03:32:19;3;3;
36523;PMS5003;66329;46.796;9.824;2023-01-29T03:34:50;1;1;
36523;PMS5003;66329;46.796;9.824;2023-01-29T03:37:25;2;2;
36523;PMS5003;66329;46.796;9.824;2023-01-29T03:39:55;2;2;
36523;PMS5003;66329;46.796;9.824;2023-01-29T03:42:23;3;3;
36523;PMS5003;66329;46.796;9.824;2023-01-29T03:44:57;1;1;
36523;PMS5003;66329;46.796;9.824;2023-01-29T03:47:32;3;3;
36523;PMS5003;66329;46.796;9.824;2023-01-29T03:50:10;4;4;
36523;PMS5003;66329;46.796;9.824;2023-01-29T03:52:46;3;3;
36523;PMS5003;66329;46.796;9.824;2023-01-29T03:55:19;3;3;
36523;PMS5003;66329;46.796;9.824;2023-01-29T03:57:57;3;3;
36523;PMS5003;66329;46.796;9.824;2023-01-29T04:00:33;2;2;
36523;PMS5003;66329;46.796;9.824;2023-01-29T04:03:07;2;2;
36523;PMS5003;66329;46.796;9.824;2023-01-29T04:05:39;2;2;
36523;PMS5003;66329;46.796;9.824;2023-01-29T04:08:11;2;2;
36523;PMS5003;66329;46.796;9.824;2023-01-29T04:10:43;2;2;
36523;PMS5003;66329;46.796;9.824;2023-01-29T04:13:12;2;2;
36523;PMS5003;66329;46.796;9.824;2023-01-29T04:15:44;1;1;
36523;PMS5003;66329;46.796;9.824;2023-01-29T04:18:15;1;1;
36523;PMS5003;66329;46.796;9.824;2023-01-29T04:20:42;3;3;
36523;PMS5003;66329;46.796;9.824;2023-01-29T04:23:19;2;2;
36523;PMS5003;66329;46.796;9.824;2023-01-29T04:25:51;2;2;
36523;PMS5003;66329;46.796;9.824;2023-01-29T04:28:39;3;3;
36523;PMS5003;66329;46.796;9.824;2023-01-29T04:31:17;1;1;
36523;PMS5003;66329;46.796;9.824;2023-01-29T04:33:57;3;3;
36523;PMS5003;66329;46.796;9.824;2023-01-29T04:36:34;3;3;
36523;PMS5003;66329;46.796;9.824;2023-01-29T04:39:09;3;3;
36523;PMS5003;66329;46.796;9.824;2023-01-29T04:41:46;2;2;
36523;PMS5003;66329;46.796;9.824;2023-01-29T04:44:19;1;1;
36523;PMS5003;66329;46.796;9.824;2023-01-29T04:47:00;2;2;
36523;PMS5003;66329;46.796;9.824;2023-01-29T04:49:34;4;2;
36523;PMS5003;66329;46.796;9.824;2023-01-29T04:52:11;3;3;
36523;PMS5003;66329;46.796;9.824;2023-01-29T04:54:49;2;2;
36523;PMS5003;66329;46.796;9.824;2023-01-29T04:57:23;2;2;
36523;PMS5003;66329;46.796;9.824;2023-01-29T05:00:00;3;3;
36523;PMS5003;66329;46.796;9.824;2023-01-29T05:02:33;1;1;
36523;PMS5003;66329;46.796;9.824;2023-01-29T05:05:03;4;3;
36523;PMS5003;66329;46.796;9.824;2023-01-29T05:07:33;4;4;
36523;PMS5003;66329;46.796;9.824;2023-01-29T05:10:02;3;3;
36523;PMS5003;66329;46.796;9.824;2023-01-29T05:12:32;1;1;
36523;PMS5003;66329;46.796;9.824;2023-01-29T05:15:04;1;1;
36523;PMS5003;66329;46.796;9.824;2023-01-29T05:17:37;3;3;
36523;PMS5003;66329;46.796;9.824;2023-01-29T05:20:04;1;1;
36523;PMS5003;66329;46.796;9.824;2023-01-29T05:22:32;3;3;
36523;PMS5003;66329;46.796;9.824;2023-01-29T05:25:19;4;2;
36523;PMS5003;66329;46.796;9.824;2023-01-29T05:27:48;1;1;
36523;PMS5003;66329;46.796;9.824;2023-01-29T05:30:17;2;1;
36523;PMS5003;66329;46.796;9.824;2023-01-29T05:32:44;2;2;
36523;PMS5003;66329;46.796;9.824;2023-01-29T05:35:11;2;2;
36523;PMS5003;66329;46.796;9.824;2023-01-29T05:37:38;3;3;
36523;PMS5003;66329;46.796;9.824;2023-01-29T05:40:06;3;3;
36523;PMS5003;66329;46.796;9.824;2023-01-29T05:42:34;4;4;
36523;PMS5003;66329;46.796;9.824;2023-01-29T05:45:01;2;2;
36523;PMS5003;66329;46.796;9.824;2023-01-29T05:47:29;2;2;
36523;PMS5003;66329;46.796;9.824;2023-01-29T05:49:57;2;2;
36523;PMS5003;66329;46.796;9.824;2023-01-29T05:52:24;3;3;
36523;PMS5003;66329;46.796;9.824;2023-01-29T05:54:52;2;2;
36523;PMS5003;66329;46.796;9.824;2023-01-29T05:57:19;2;2;
36523;PMS5003;66329;46.796;9.824;2023-01-29T05:59:46;2;2;
36523;PMS5003;66329;46.796;9.824;2023-01-29T06:02:13;4;1;
36523;PMS5003;66329;46.796;9.824;2023-01-29T06:04:40;3;3;
36523;PMS5003;66329;46.796;9.824;2023-01-29T06:07:07;4;3;
36523;PMS5003;66329;46.796;9.824;2023-01-29T06:09:35;1;1;
36523;PMS5003;66329;46.796;9.824;2023-01-29T06:12:02;4;3;
36523;PMS5003;66329;46.796;9.824;2023-01-29T06:14:30;2;2;
36523;PMS5003;66329;46.796;9.824;2023-01-29T06:16:58;3;3;
36523;PMS5003;66329;46.796;9.824;2023-01-29T06:19:25;3;3;
36523;PMS5003;66329;46.796;9.824;2023-01-29T06:21:52;4;3;
36523;PMS5003;66329;46.796;9.824;2023-01-29T06:24:19;3;3;
36523;PMS5003;66329;46.796;9.824;2023-01-29T06:26:46;4;3;
36523;PMS5003;66329;46.796;9.824;2023-01-29T06:29:13;3;3;
36523;PMS5003;66329;46.796;9.824;2023-01-29T06:31:42;2;2;
36523;PMS5003;66329;46.796;9.824;2023-01-29T06:34:12;2;2;
36523;PMS5003;66329;46.796;9.824;2023-01-29T06:36:39;3;3;
36523;PMS5003;66329;46.796;9.824;2023-01-29T06:39:07;3;3;
36523;PMS5003;66329;46.796;9.824;2023-01-29T06:41:40;4;4;
36523;PMS5003;66329;46.796;9.824;2023-01-29T06:44:08;3;3;
36523;PMS5003;66329;46.796;9.824;2023-01-29T06:46:35;4;4;
36523;PMS5003;66329;46.796;9.824;2023-01-29T06:49:07;3;3;
36523;PMS5003;66329;46.796;9.824;2023-01-29T06:51:34;3;3;
36523;PMS5003;66329;46.796;9.824;2023-01-29T06:54:01;2;2;
36523;PMS5003;66329;46.796;9.824;2023-01-29T06:56:30;2;2;
36523;PMS5003;66329;46.796;9.824;2023-01-29T06:58:57;4;4;
36523;PMS5003;66329;46.796;9.824;2023-01-29T07:01:25;2;2;
36523;PMS5003;66329;46.796;9.824;2023-01-29T07:03:53;5;5;
36523;PMS5003;66329;46.796;9.824;2023-01-29T07:06:20;5;5;
36523;PMS5003;66329;46.796;9.824;2023-01-29T07:08:47;4;4;
36523;PMS5003;66329;46.796;9.824;2023-01-29T07:11:14;2;2;
36523;PMS5003;66329;46.796;9.824;2023-01-29T07:13:41;3;3;
36523;PMS5003;66329;46.796;9.824;2023-01-29T07:16:08;3;3;
36523;PMS5003;66329;46.796;9.824;2023-01-29T07:18:35;4;4;
36523;PMS5003;66329;46.796;9.824;2023-01-29T07:21:03;7;4;
36523;PMS5003;66329;46.796;9.824;2023-01-29T07:23:42;3;3;
36523;PMS5003;66329;46.796;9.824;2023-01-29T07:26:09;3;3;
36523;PMS5003;66329;46.796;9.824;2023-01-29T07:28:37;5;3;
36523;PMS5003;66329;46.796;9.824;2023-01-29T07:31:05;2;2;
36523;PMS5003;66329;46.796;9.824;2023-01-29T07:33:34;5;3;
36523;PMS5003;66329;46.796;9.824;2023-01-29T07:36:01;3;3;
36523;PMS5003;66329;46.796;9.824;2023-01-29T07:38:32;2;2;
36523;PMS5003;66329;46.796;9.824;2023-01-29T07:41:00;3;3;
36523;PMS5003;66329;46.796;9.824;2023-01-29T07:43:27;4;4;
36523;PMS5003;66329;46.796;9.824;2023-01-29T07:45:54;3;3;
36523;PMS5003;66329;46.796;9.824;2023-01-29T07:48:21;2;2;
36523;PMS5003;66329;46.796;9.824;2023-01-29T07:50:53;4;4;
36523;PMS5003;66329;46.796;9.824;2023-01-29T07:53:20;3;3;
36523;PMS5003;66329;46.796;9.824;2023-01-29T07:55:48;3;3;
36523;PMS5003;66329;46.796;9.824;2023-01-29T07:58:15;2;2;
36523;PMS5003;66329;46.796;9.824;2023-01-29T08:00:43;3;3;
36523;PMS5003;66329;46.796;9.824;2023-01-29T08:03:11;4;4;
36523;PMS5003;66329;46.796;9.824;2023-01-29T08:05:40;4;4;
36523;PMS5003;66329;46.796;9.824;2023-01-29T08:08:08;3;3;
36523;PMS5003;66329;46.796;9.824;2023-01-29T08:10:36;2;2;
36523;PMS5003;66329;46.796;9.824;2023-01-29T08:13:05;5;5;
36523;PMS5003;66329;46.796;9.824;2023-01-29T08:15:33;3;3;
36523;PMS5003;66329;46.796;9.824;2023-01-29T08:18:01;3;3;
36523;PMS5003;66329;46.796;9.824;2023-01-29T08:20:29;4;4;
36523;PMS5003;66329;46.796;9.824;2023-01-29T08:22:58;3;3;
36523;PMS5003;66329;46.796;9.824;2023-01-29T08:25:26;3;3;
36523;PMS5003;66329;46.796;9.824;2023-01-29T08:27:55;4;4;
36523;PMS5003;66329;46.796;9.824;2023-01-29T08:30:23;3;3;
36523;PMS5003;66329;46.796;9.824;2023-01-29T08:32:50;3;3;
36523;PMS5003;66329;46.796;9.824;2023-01-29T08:35:17;3;3;
36523;PMS5003;66329;46.796;9.824;2023-01-29T08:37:51;3;3;
36523;PMS5003;66329;46.796;9.824;2023-01-29T08:40:19;4;4;
36523;PMS5003;66329;46.796;9.824;2023-01-29T08:42:47;4;3;
36523;PMS5003;66329;46.796;9.824;2023-01-29T08:45:14;4;3;
36523;PMS5003;66329;46.796;9.824;2023-01-29T08:47:44;4;4;
36523;PMS5003;66329;46.796;9.824;2023-01-29T08:50:11;4;4;
36523;PMS5003;66329;46.796;9.824;2023-01-29T08:52:38;3;3;
36523;PMS5003;66329;46.796;9.824;2023-01-29T08:55:06;3;3;
36523;PMS5003;66329;46.796;9.824;2023-01-29T08:57:33;3;3;
36523;PMS5003;66329;46.796;9.824;2023-01-29T09:00:00;5;5;
36523;PMS5003;66329;46.796;9.824;2023-01-29T09:02:28;4;4;
36523;PMS5003;66329;46.796;9.824;2023-01-29T09:04:55;5;5;
36523;PMS5003;66329;46.796;9.824;2023-01-29T09:07:22;3;3;
36523;PMS5003;66329;46.796;9.824;2023-01-29T09:09:49;5;5;
36523;PMS5003;66329;46.796;9.824;2023-01-29T09:12:17;6;5;
36523;PMS5003;66329;46.796;9.824;2023-01-29T09:14:44;6;6;
36523;PMS5003;66329;46.796;9.824;2023-01-29T09:17:11;4;3;
36523;PMS5003;66329;46.796;9.824;2023-01-29T09:19:38;8;7;
36523;PMS5003;66329;46.796;9.824;2023-01-29T09:22:06;6;6;
36523;PMS5003;66329;46.796;9.824;2023-01-29T09:24:34;7;7;
36523;PMS5003;66329;46.796;9.824;2023-01-29T09:27:01;5;5;
36523;PMS5003;66329;46.796;9.824;2023-01-29T09:29:30;4;4;
36523;PMS5003;66329;46.796;9.824;2023-01-29T09:31:58;5;5;
36523;PMS5003;66329;46.796;9.824;2023-01-29T09:34:25;5;5;
36523;PMS5003;66329;46.796;9.824;2023-01-29T09:36:52;6;6;
36523;PMS5003;66329;46.796;9.824;2023-01-29T09:39:19;7;7;
36523;PMS5003;66329;46.796;9.824;2023-01-29T09:41:49;7;7;
36523;PMS5003;66329;46.796;9.824;2023-01-29T09:44:27;7;7;
36523;PMS5003;66329;46.796;9.824;2023-01-29T09:47:09;8;6;
36523;PMS5003;66329;46.796;9.824;2023-01-29T09:49:40;5;5;
36523;PMS5003;66329;46.796;9.824;2023-01-29T09:52:14;6;6;
36523;PMS5003;66329;46.796;9.824;2023-01-29T09:54:48;8;6;
36523;PMS5003;66329;46.796;9.824;2023-01-29T09:57:22;5;4;
36523;PMS5003;66329;46.796;9.824;2023-01-29T09:59:53;5;5;
36523;PMS5003;66329;46.796;9.824;2023-01-29T10:02:25;5;4;
36523;PMS5003;66329;46.796;9.824;2023-01-29T10:05:13;5;5;
36523;PMS5003;66329;46.796;9.824;2023-01-29T10:08:02;4;4;
36523;PMS5003;66329;46.796;9.824;2023-01-29T10:10:42;4;4;
36523;PMS5003;66329;46.796;9.824;2023-01-29T10:13:19;6;6;
36523;PMS5003;66329;46.796;9.824;2023-01-29T10:16:01;6;6;
36523;PMS5003;66329;46.796;9.824;2023-01-29T10:18:43;5;5;
36523;PMS5003;66329;46.796;9.824;2023-01-29T10:21:27;4;4;
36523;PMS5003;66329;46.796;9.824;2023-01-29T10:24:13;5;5;
36523;PMS5003;66329;46.796;9.824;2023-01-29T10:26:47;6;6;
36523;PMS5003;66329;46.796;9.824;2023-01-29T10:29:17;6;6;
36523;PMS5003;66329;46.796;9.824;2023-01-29T10:31:46;6;6;
36523;PMS5003;66329;46.796;9.824;2023-01-29T10:34:20;6;5;
36523;PMS5003;66329;46.796;9.824;2023-01-29T10:36:55;5;5;
36523;PMS5003;66329;46.796;9.824;2023-01-29T10:39:22;5;5;
36523;PMS5003;66329;46.796;9.824;2023-01-29T10:41:54;6;6;
36523;PMS5003;66329;46.796;9.824;2023-01-29T10:44:36;6;6;
36523;PMS5003;66329;46.796;9.824;2023-01-29T10:47:16;3;3;
36523;PMS5003;66329;46.796;9.824;2023-01-29T10:50:07;7;5;
36523;PMS5003;66329;46.796;9.824;2023-01-29T10:52:48;4;4;
36523;PMS5003;66329;46.796;9.824;2023-01-29T10:55:29;4;4;
36523;PMS5003;66329;46.796;9.824;2023-01-29T10:58:11;4;4;
36523;PMS5003;66329;46.796;9.824;2023-01-29T11:00:47;5;5;
36523;PMS5003;66329;46.796;9.824;2023-01-29T11:03:21;3;3;
36523;PMS5003;66329;46.796;9.824;2023-01-29T11:05:55;4;4;
36523;PMS5003;66329;46.796;9.824;2023-01-29T11:08:32;5;4;
36523;PMS5003;66329;46.796;9.824;2023-01-29T11:11:06;5;5;
36523;PMS5003;66329;46.796;9.824;2023-01-29T11:13:36;5;3;
36523;PMS5003;66329;46.796;9.824;2023-01-29T11:16:08;6;6;
36523;PMS5003;66329;46.796;9.824;2023-01-29T11:19:08;6;5;
36523;PMS5003;66329;46.796;9.824;2023-01-29T11:21:49;5;4;
36523;PMS5003;66329;46.796;9.824;2023-01-29T11:24:19;4;4;
36523;PMS5003;66329;46.796;9.824;2023-01-29T11:26:47;5;5;
36523;PMS5003;66329;46.796;9.824;2023-01-29T11:29:48;4;4;
36523;PMS5003;66329;46.796;9.824;2023-01-29T11:32:31;3;3;
36523;PMS5003;66329;46.796;9.824;2023-01-29T11:35:01;3;3;
36523;PMS5003;66329;46.796;9.824;2023-01-29T11:37:31;4;4;
36523;PMS5003;66329;46.796;9.824;2023-01-29T11:40:01;3;3;
36523;PMS5003;66329;46.796;9.824;2023-01-29T11:42:54;3;3;
36523;PMS5003;66329;46.796;9.824;2023-01-29T11:45:34;4;4;
36523;PMS5003;66329;46.796;9.824;2023-01-29T11:48:10;4;4;
36523;PMS5003;66329;46.796;9.824;2023-01-29T11:50:41;3;3;
36523;PMS5003;66329;46.796;9.824;2023-01-29T11:53:32;3;3;
36523;PMS5003;66329;46.796;9.824;2023-01-29T11:56:03;4;4;
36523;PMS5003;66329;46.796;9.824;2023-01-29T11:58:39;4;4;
36523;PMS5003;66329;46.796;9.824;2023-01-29T12:01:07;5;3;
36523;PMS5003;66329;46.796;9.824;2023-01-29T12:03:38;4;4;
36523;PMS5003;66329;46.796;9.824;2023-01-29T12:06:13;3;2;
36523;PMS5003;66329;46.796;9.824;2023-01-29T12:08:52;2;2;
36523;PMS5003;66329;46.796;9.824;2023-01-29T12:11:26;4;4;
36523;PMS5003;66329;46.796;9.824;2023-01-29T12:13:55;2;2;
36523;PMS5003;66329;46.796;9.824;2023-01-29T12:16:25;2;2;
36523;PMS5003;66329;46.796;9.824;2023-01-29T12:19:00;3;3;
36523;PMS5003;66329;46.796;9.824;2023-01-29T12:21:37;2;2;
36523;PMS5003;66329;46.796;9.824;2023-01-29T12:24:14;5;5;
36523;PMS5003;66329;46.796;9.824;2023-01-29T12:26:54;2;2;
36523;PMS5003;66329;46.796;9.824;2023-01-29T12:29:30;2;2;
36523;PMS5003;66329;46.796;9.824;2023-01-29T12:32:06;1;1;
36523;PMS5003;66329;46.796;9.824;2023-01-29T12:34:45;2;2;
36523;PMS5003;66329;46.796;9.824;2023-01-29T12:37:19;3;2;
36523;PMS5003;66329;46.796;9.824;2023-01-29T12:39:49;2;2;
36523;PMS5003;66329;46.796;9.824;2023-01-29T12:42:18;3;3;
36523;PMS5003;66329;46.796;9.824;2023-01-29T12:44:47;2;2;
36523;PMS5003;66329;46.796;9.824;2023-01-29T12:47:22;3;3;
36523;PMS5003;66329;46.796;9.824;2023-01-29T12:49:53;2;2;
36523;PMS5003;66329;46.796;9.824;2023-01-29T12:52:22;2;2;
36523;PMS5003;66329;46.796;9.824;2023-01-29T12:55:18;4;4;
36523;PMS5003;66329;46.796;9.824;2023-01-29T12:57:49;3;3;
36523;PMS5003;66329;46.796;9.824;2023-01-29T13:00:22;2;2;
36523;PMS5003;66329;46.796;9.824;2023-01-29T13:02:59;3;1;
36523;PMS5003;66329;46.796;9.824;2023-01-29T13:05:33;2;2;
36523;PMS5003;66329;46.796;9.824;2023-01-29T13:08:07;2;2;
36523;PMS5003;66329;46.796;9.824;2023-01-29T13:10:41;3;3;
36523;PMS5003;66329;46.796;9.824;2023-01-29T13:13:13;2;2;
36523;PMS5003;66329;46.796;9.824;2023-01-29T13:15:47;2;2;
36523;PMS5003;66329;46.796;9.824;2023-01-29T13:18:20;1;1;
36523;PMS5003;66329;46.796;9.824;2023-01-29T13:20:58;2;2;
36523;PMS5003;66329;46.796;9.824;2023-01-29T13:23:29;2;2;
36523;PMS5003;66329;46.796;9.824;2023-01-29T13:26:01;3;3;
36523;PMS5003;66329;46.796;9.824;2023-01-29T13:28:29;1;1;
36523;PMS5003;66329;46.796;9.824;2023-01-29T13:31:13;2;2;
36523;PMS5003;66329;46.796;9.824;2023-01-29T13:34:04;2;2;
36523;PMS5003;66329;46.796;9.824;2023-01-29T13:36:40;2;2;
36523;PMS5003;66329;46.796;9.824;2023-01-29T13:39:16;2;2;
36523;PMS5003;66329;46.796;9.824;2023-01-29T13:41:51;2;2;
36523;PMS5003;66329;46.796;9.824;2023-01-29T13:44:21;2;2;
36523;PMS5003;66329;46.796;9.824;2023-01-29T13:46:53;2;1;
36523;PMS5003;66329;46.796;9.824;2023-01-29T13:49:26;2;2;
36523;PMS5003;66329;46.796;9.824;2023-01-29T13:51:56;1;1;
36523;PMS5003;66329;46.796;9.824;2023-01-29T13:54:25;2;2;
36523;PMS5003;66329;46.796;9.824;2023-01-29T13:56:57;0;0;
36523;PMS5003;66329;46.796;9.824;2023-01-29T13:59:59;1;1;
36523;PMS5003;66329;46.796;9.824;2023-01-29T14:02:27;6;3;
36523;PMS5003;66329;46.796;9.824;2023-01-29T14:06:01;2;2;
36523;PMS5003;66329;46.796;9.824;2023-01-29T14:08:35;3;2;
36523;PMS5003;66329;46.796;9.824;2023-01-29T14:11:39;1;1;
36523;PMS5003;66329;46.796;9.824;2023-01-29T14:15:03;3;3;
36523;PMS5003;66329;46.796;9.824;2023-01-29T14:17:54;2;2;
36523;PMS5003;66329;46.796;9.824;2023-01-29T14:20:33;1;1;
36523;PMS5003;66329;46.796;9.824;2023-01-29T14:23:04;1;1;
36523;PMS5003;66329;46.796;9.824;2023-01-29T14:25:32;1;1;
36523;PMS5003;66329;46.796;9.824;2023-01-29T14:28:03;1;1;
36523;PMS5003;66329;46.796;9.824;2023-01-29T14:30:39;1;1;
36523;PMS5003;66329;46.796;9.824;2023-01-29T14:33:18;1;1;
36523;PMS5003;66329;46.796;9.824;2023-01-29T14:33:23;1;1;
36523;PMS5003;66329;46.796;9.824;2023-01-29T14:35:54;1;1;
36523;PMS5003;66329;46.796;9.824;2023-01-29T14:38:25;1;1;
36523;PMS5003;66329;46.796;9.824;2023-01-29T14:41:02;1;1;
36523;PMS5003;66329;46.796;9.824;2023-01-29T14:43:34;2;2;
36523;PMS5003;66329;46.796;9.824;2023-01-29T14:46:52;2;2;
36523;PMS5003;66329;46.796;9.824;2023-01-29T14:49:47;1;1;
36523;PMS5003;66329;46.796;9.824;2023-01-29T14:52:15;2;2;
36523;PMS5003;66329;46.796;9.824;2023-01-29T14:54:46;1;1;
36523;PMS5003;66329;46.796;9.824;2023-01-29T14:57:16;1;1;
36523;PMS5003;66329;46.796;9.824;2023-01-29T14:59:47;1;1;
36523;PMS5003;66329;46.796;9.824;2023-01-29T15:02:21;1;1;
36523;PMS5003;66329;46.796;9.824;2023-01-29T15:04:51;2;2;
36523;PMS5003;66329;46.796;9.824;2023-01-29T15:07:25;1;1;
36523;PMS5003;66329;46.796;9.824;2023-01-29T15:10:00;1;1;
36523;PMS5003;66329;46.796;9.824;2023-01-29T15:12:35;0;0;
36523;PMS5003;66329;46.796;9.824;2023-01-29T15:15:14;1;1;
36523;PMS5003;66329;46.796;9.824;2023-01-29T15:17:48;1;1;
36523;PMS5003;66329;46.796;9.824;2023-01-29T15:20:27;1;1;
36523;PMS5003;66329;46.796;9.824;2023-01-29T15:22:57;2;2;
36523;PMS5003;66329;46.796;9.824;2023-01-29T15:25:25;2;2;
36523;PMS5003;66329;46.796;9.824;2023-01-29T15:27:56;2;2;
36523;PMS5003;66329;46.796;9.824;2023-01-29T15:30:26;1;1;
36523;PMS5003;66329;46.796;9.824;2023-01-29T15:32:58;1;1;
36523;PMS5003;66329;46.796;9.824;2023-01-29T15:35:30;1;1;
36523;PMS5003;66329;46.796;9.824;2023-01-29T15:38:03;2;2;
36523;PMS5003;66329;46.796;9.824;2023-01-29T15:40:33;1;1;
36523;PMS5003;66329;46.796;9.824;2023-01-29T15:43:00;1;1;
36523;PMS5003;66329;46.796;9.824;2023-01-29T15:45:28;2;2;
36523;PMS5003;66329;46.796;9.824;2023-01-29T15:47:58;1;1;
36523;PMS5003;66329;46.796;9.824;2023-01-29T15:50:30;1;1;
36523;PMS5003;66329;46.796;9.824;2023-01-29T15:52:59;0;0;
36523;PMS5003;66329;46.796;9.824;2023-01-29T15:55:32;2;2;
36523;PMS5003;66329;46.796;9.824;2023-01-29T15:58:00;1;1;
36523;PMS5003;66329;46.796;9.824;2023-01-29T16:00:29;1;1;
36523;PMS5003;66329;46.796;9.824;2023-01-29T16:02:56;2;2;
36523;PMS5003;66329;46.796;9.824;2023-01-29T16:05:26;1;1;
36523;PMS5003;66329;46.796;9.824;2023-01-29T16:07:55;1;1;
36523;PMS5003;66329;46.796;9.824;2023-01-29T16:10:25;1;1;
36523;PMS5003;66329;46.796;9.824;2023-01-29T16:12:55;0;0;
36523;PMS5003;66329;46.796;9.824;2023-01-29T16:15:28;1;1;
36523;PMS5003;66329;46.796;9.824;2023-01-29T16:17:59;2;1;
36523;PMS5003;66329;46.796;9.824;2023-01-29T16:20:30;4;2;
36523;PMS5003;66329;46.796;9.824;2023-01-29T16:23:21;1;1;
36523;PMS5003;66329;46.796;9.824;2023-01-29T16:26:00;2;2;
36523;PMS5003;66329;46.796;9.824;2023-01-29T16:28:32;2;1;
36523;PMS5003;66329;46.796;9.824;2023-01-29T16:31:04;2;2;
36523;PMS5003;66329;46.796;9.824;2023-01-29T16:33:34;1;1;
36523;PMS5003;66329;46.796;9.824;2023-01-29T16:36:06;2;2;
36523;PMS5003;66329;46.796;9.824;2023-01-29T16:38:39;2;2;
36523;PMS5003;66329;46.796;9.824;2023-01-29T16:41:12;0;0;
36523;PMS5003;66329;46.796;9.824;2023-01-29T16:43:48;2;2;
36523;PMS5003;66329;46.796;9.824;2023-01-29T16:46:19;2;2;
36523;PMS5003;66329;46.796;9.824;2023-01-29T16:48:50;2;2;
36523;PMS5003;66329;46.796;9.824;2023-01-29T16:51:21;2;2;
36523;PMS5003;66329;46.796;9.824;2023-01-29T16:53:51;3;3;
36523;PMS5003;66329;46.796;9.824;2023-01-29T16:56:22;1;1;
36523;PMS5003;66329;46.796;9.824;2023-01-29T16:58:52;1;1;
36523;PMS5003;66329;46.796;9.824;2023-01-29T17:01:22;2;2;
36523;PMS5003;66329;46.796;9.824;2023-01-29T17:03:55;3;2;
36523;PMS5003;66329;46.796;9.824;2023-01-29T17:06:26;2;2;
36523;PMS5003;66329;46.796;9.824;2023-01-29T17:08:53;2;2;
36523;PMS5003;66329;46.796;9.824;2023-01-29T17:11:30;1;1;
36523;PMS5003;66329;46.796;9.824;2023-01-29T17:14:02;2;2;
36523;PMS5003;66329;46.796;9.824;2023-01-29T17:16:32;2;2;
36523;PMS5003;66329;46.796;9.824;2023-01-29T17:19:03;2;2;
36523;PMS5003;66329;46.796;9.824;2023-01-29T17:21:45;3;3;